KTVL/TVL METAR and TAF weather

Enter ICAO airport designator
Station Type Date Time Source
KTVL METAR 2022/01/18 06:53 UTC NOAA

KTVL 180653Z AUTO 00000KT 10SM CLR M05/M07 A3010 RMK AO2 SLP197 T10501072


Station Type Date Time Source
KTVL Decoded METAR 2022/01/18 06:53 UTC NOAA

SOUTH LAKE TAHOE AIRPORT, CA, United States (KTVL) 38-53N 119-59W 1925M
Jan 18, 2022 - 01:53 AM EST / 2022.01.18 0653 UTC
Wind: Calm:0
Visibility: 10 mile(s):0
Sky conditions: clear
Temperature: 23.0 F (-5.0 C)
Dew Point: 19.0 F (-7.2 C)
Relative Humidity: 84%
Pressure (altimeter): 30.1 in. Hg (1019 hPa)
ob: KTVL 180653Z AUTO 00000KT 10SM CLR M05/M07 A3010 RMK AO2 SLP197 T10501072
cycle: 7

Station Type Date Time Source
KTVL TAF 2022/01/18 06:24 UTC NOAA

TAF KTVL 180522Z 1806/1906 VRB03KT P6SM BKN200
FM181800 03006KT P6SM BKN200
FM190000 VRB03KT P6SM BKN200

Example: see airport list